createdAt,value
2018-08-03T00:02:13.396Z,25.44
2018-08-03T00:07:15.614Z,25.45
2018-08-03T00:12:17.778Z,25.35
2018-08-03T00:17:19.907Z,25.26
2018-08-03T00:22:22.148Z,25.24
2018-08-03T00:27:24.301Z,25.20
2018-08-03T00:32:26.449Z,25.25
2018-08-03T00:37:28.557Z,25.18
2018-08-03T00:42:30.683Z,25.12
2018-08-03T00:47:32.858Z,25.11
2018-08-03T00:52:35.004Z,25.06
2018-08-03T00:57:37.146Z,25.02
2018-08-03T01:02:39.343Z,24.97
2018-08-03T01:07:41.558Z,24.91
2018-08-03T01:12:46.027Z,24.81
2018-08-03T01:17:48.147Z,24.78
2018-08-03T01:22:50.296Z,24.75
2018-08-03T01:27:52.474Z,24.74
2018-08-03T01:32:54.643Z,24.66
2018-08-03T01:37:56.831Z,24.61
2018-08-03T01:42:58.933Z,24.60
2018-08-03T01:48:01.107Z,24.56
2018-08-03T01:53:03.257Z,24.55
2018-08-03T01:58:05.640Z,24.52
2018-08-03T02:03:07.776Z,24.44
2018-08-03T02:08:09.968Z,24.37
2018-08-03T02:13:12.108Z,24.33
2018-08-03T02:18:14.239Z,24.29
2018-08-03T02:23:16.384Z,24.23
2018-08-03T02:28:18.502Z,24.22
2018-08-03T02:33:20.659Z,24.19
2018-08-03T02:38:22.770Z,24.15
2018-08-03T02:43:24.932Z,24.10
2018-08-03T02:48:27.080Z,24.10
2018-08-03T02:53:29.242Z,24.06
2018-08-03T02:58:31.375Z,24.08
2018-08-03T03:03:33.527Z,24.04
2018-08-03T03:08:35.721Z,24.03
2018-08-03T03:13:37.859Z,24.00
2018-08-03T03:18:40.007Z,23.94
2018-08-03T03:23:42.170Z,23.96
2018-08-03T03:28:44.312Z,23.89
2018-08-03T03:33:46.435Z,23.93
2018-08-03T03:38:48.603Z,23.92
2018-08-03T03:43:50.785Z,23.86
2018-08-03T03:48:52.932Z,23.80
2018-08-03T03:53:55.065Z,23.81
2018-08-03T03:58:57.190Z,23.81
2018-08-03T04:03:59.331Z,23.82
2018-08-03T04:09:01.495Z,23.93
2018-08-03T04:14:03.658Z,23.94
2018-08-03T04:19:05.981Z,23.94
2018-08-03T04:24:08.174Z,23.92
2018-08-03T04:29:10.346Z,23.95
2018-08-03T04:34:12.503Z,23.99
2018-08-03T04:39:14.679Z,24.02
2018-08-03T04:44:16.858Z,24.13
2018-08-03T04:49:18.995Z,24.20
2018-08-03T04:54:21.161Z,24.19
2018-08-03T04:59:23.339Z,24.19
2018-08-03T05:04:25.454Z,24.35
2018-08-03T05:09:27.621Z,24.46
2018-08-03T05:14:29.792Z,24.53
2018-08-03T05:19:31.965Z,24.63
2018-08-03T05:24:34.138Z,24.72
2018-08-03T05:29:36.282Z,24.81
2018-08-03T05:34:38.401Z,24.88
2018-08-03T05:39:40.519Z,24.96
2018-08-03T05:44:42.697Z,25.08
2018-08-03T05:49:44.855Z,25.18
2018-08-03T05:54:46.989Z,25.27
2018-08-03T05:59:49.162Z,25.35
2018-08-03T06:04:51.457Z,25.49
2018-08-03T06:09:53.716Z,25.58
2018-08-03T06:14:55.904Z,25.69
2018-08-03T06:19:58.067Z,25.77
2018-08-03T06:25:00.220Z,25.87
2018-08-03T06:30:02.400Z,25.94
2018-08-03T06:35:04.595Z,26.08
2018-08-03T06:40:06.764Z,26.20
2018-08-03T06:45:08.923Z,26.12
2018-08-03T06:50:11.119Z,26.16
2018-08-03T06:55:13.312Z,26.31
2018-08-03T07:00:16.480Z,26.37
2018-08-03T07:05:18.654Z,26.45
2018-08-03T07:10:20.867Z,26.45
2018-08-03T07:15:23.021Z,26.53
2018-08-03T07:20:25.264Z,26.60
2018-08-03T07:25:27.371Z,26.52
2018-08-03T07:30:29.514Z,26.45
2018-08-03T07:35:31.668Z,26.52
2018-08-03T07:40:33.831Z,26.55
2018-08-03T07:45:35.970Z,26.61
2018-08-03T07:50:38.114Z,26.73
2018-08-03T07:55:40.284Z,26.90
2018-08-03T08:00:42.432Z,27.00
2018-08-03T08:05:44.590Z,27.08
2018-08-03T08:10:46.820Z,27.08
2018-08-03T08:15:48.991Z,27.05
2018-08-03T08:20:51.969Z,27.09
2018-08-03T08:25:54.117Z,27.36
2018-08-03T08:30:56.292Z,27.42
2018-08-03T08:35:58.464Z,27.57
2018-08-03T08:41:00.646Z,27.57
2018-08-03T08:46:02.852Z,27.55
2018-08-03T08:51:05.060Z,27.79
2018-08-03T08:56:07.247Z,27.75
2018-08-03T09:01:09.480Z,27.91
2018-08-03T09:06:11.612Z,28.22
2018-08-03T09:11:13.831Z,28.31
2018-08-03T09:16:16.030Z,28.44
2018-08-03T09:21:18.222Z,28.38
2018-08-03T09:26:20.423Z,28.46
2018-08-03T09:31:22.614Z,28.66
2018-08-03T09:36:24.819Z,28.78
2018-08-03T09:41:26.954Z,28.84
2018-08-03T09:46:29.234Z,28.87
2018-08-03T09:51:31.455Z,29.04
2018-08-03T09:56:33.648Z,29.23
2018-08-03T10:01:35.897Z,29.42
2018-08-03T10:06:38.055Z,29.46
2018-08-03T10:11:40.300Z,29.59
2018-08-03T10:16:42.486Z,29.67
2018-08-03T10:21:44.639Z,29.74
2018-08-03T10:26:46.834Z,29.87
2018-08-03T10:31:49.073Z,29.94
2018-08-03T10:36:51.267Z,30.24
2018-08-03T10:41:53.432Z,30.42
2018-08-03T10:46:55.649Z,30.37
2018-08-03T10:51:57.848Z,30.79
2018-08-03T10:57:00.057Z,30.97
2018-08-03T11:02:02.296Z,30.67
2018-08-03T11:07:04.582Z,30.82
2018-08-03T11:12:06.818Z,30.97
2018-08-03T11:17:08.995Z,30.71
2018-08-03T11:22:11.868Z,31.19
2018-08-03T11:27:14.024Z,31.60
2018-08-03T11:32:16.211Z,31.34
2018-08-03T11:37:18.404Z,31.68
2018-08-03T11:42:20.583Z,31.69
2018-08-03T11:47:22.764Z,31.60
2018-08-03T11:52:25.018Z,32.14
2018-08-03T11:57:27.229Z,31.66
2018-08-03T12:02:29.404Z,31.98
2018-08-03T12:07:31.617Z,32.71
2018-08-03T12:12:33.868Z,33.15
2018-08-03T12:17:35.996Z,33.23
2018-08-03T12:22:38.159Z,33.37
2018-08-03T12:27:40.334Z,33.39
2018-08-03T12:32:42.500Z,33.94
2018-08-03T12:37:44.733Z,34.32
2018-08-03T12:42:46.921Z,34.53
2018-08-03T12:47:49.133Z,34.53
2018-08-03T12:52:51.738Z,34.69
2018-08-03T12:57:53.876Z,34.02
2018-08-03T13:02:56.020Z,34.64
2018-08-03T13:07:58.372Z,34.95
2018-08-03T13:13:00.463Z,35.27
2018-08-03T13:18:02.745Z,35.76
2018-08-03T13:23:04.948Z,35.80
2018-08-03T13:28:07.130Z,35.88
2018-08-03T13:33:09.298Z,35.63
2018-08-03T13:38:11.457Z,36.01
2018-08-03T13:43:13.627Z,36.13
2018-08-03T13:48:15.792Z,36.04
2018-08-03T13:53:17.988Z,36.26
2018-08-03T13:58:20.188Z,36.43
2018-08-03T14:03:22.411Z,36.12
2018-08-03T14:08:24.599Z,36.24
2018-08-03T14:13:26.828Z,35.64
2018-08-03T14:18:29.041Z,35.30
2018-08-03T14:23:31.224Z,34.84
2018-08-03T14:28:33.407Z,34.33
2018-08-03T14:33:35.615Z,34.02
2018-08-03T14:38:37.811Z,34.17
2018-08-03T14:43:39.990Z,33.94
2018-08-03T14:48:42.180Z,33.84
2018-08-03T14:53:44.358Z,33.95
2018-08-03T14:58:46.532Z,33.67
2018-08-03T15:03:48.714Z,33.24
2018-08-03T15:08:50.880Z,33.28
2018-08-03T15:13:53.113Z,33.00
2018-08-03T15:18:55.291Z,33.06
2018-08-03T15:23:57.530Z,33.10
2018-08-03T15:28:59.732Z,33.48
2018-08-03T15:34:01.893Z,33.40
2018-08-03T15:39:06.706Z,33.48
2018-08-03T15:44:08.919Z,33.38
2018-08-03T15:49:11.130Z,33.53
2018-08-03T15:54:13.227Z,33.70
2018-08-03T15:59:15.468Z,33.66
2018-08-03T16:04:17.696Z,33.76
2018-08-03T16:09:19.936Z,33.80
2018-08-03T16:14:22.150Z,32.02
2018-08-03T16:19:24.305Z,33.81
2018-08-03T16:24:26.458Z,33.76
2018-08-03T16:29:28.595Z,33.84
2018-08-03T16:34:30.770Z,33.83
2018-08-03T16:39:32.950Z,33.97
2018-08-03T16:44:35.134Z,33.93
2018-08-03T16:49:37.336Z,34.08
2018-08-03T16:54:39.495Z,33.75
2018-08-03T16:59:41.638Z,33.84
2018-08-03T17:04:44.053Z,33.86
2018-08-03T17:09:46.196Z,33.74
2018-08-03T17:14:48.416Z,33.52
2018-08-03T17:19:50.552Z,33.32
2018-08-03T17:24:52.766Z,32.86
2018-08-03T17:29:54.983Z,32.89
2018-08-03T17:34:57.220Z,32.66
2018-08-03T17:39:59.353Z,32.37
2018-08-03T17:45:01.520Z,32.18
2018-08-03T17:50:04.361Z,31.89
2018-08-03T17:55:06.615Z,31.51
2018-08-03T18:00:08.883Z,31.03
2018-08-03T18:05:11.065Z,30.89
2018-08-03T18:10:13.294Z,30.61
2018-08-03T18:15:15.502Z,30.42
2018-08-03T18:20:17.716Z,30.29
2018-08-03T18:25:19.901Z,30.14
2018-08-03T18:30:22.120Z,30.07
2018-08-03T18:35:25.032Z,29.84
2018-08-03T18:40:27.287Z,29.86
2018-08-03T18:45:30.140Z,29.69
2018-08-03T18:50:32.317Z,29.67
2018-08-03T18:55:34.582Z,29.64
2018-08-03T19:00:36.846Z,29.56
2018-08-03T19:05:39.101Z,29.47
2018-08-03T19:10:41.293Z,29.33
2018-08-03T19:15:43.534Z,29.17
2018-08-03T19:20:45.706Z,29.02
2018-08-03T19:25:47.898Z,28.92
2018-08-03T19:30:50.125Z,28.79
2018-08-03T19:35:52.332Z,28.73
2018-08-03T19:40:54.536Z,28.68
2018-08-03T19:45:56.772Z,28.73
2018-08-03T19:50:59.027Z,28.44
2018-08-03T19:56:01.250Z,28.34
2018-08-03T20:01:03.477Z,28.23
2018-08-03T20:06:05.676Z,28.11
2018-08-03T20:11:07.920Z,27.99
2018-08-03T20:16:10.164Z,27.74
2018-08-03T20:21:12.397Z,27.62
2018-08-03T20:26:14.601Z,27.61
2018-08-03T20:31:17.085Z,27.63
2018-08-03T20:36:19.269Z,27.54
2018-08-03T20:41:22.284Z,27.49
2018-08-03T20:46:24.477Z,27.52
2018-08-03T20:51:26.708Z,27.48
2018-08-03T20:56:28.944Z,27.52
2018-08-03T21:01:31.153Z,27.44
2018-08-03T21:06:33.303Z,27.34
2018-08-03T21:11:35.729Z,27.30
2018-08-03T21:16:38.527Z,27.27
2018-08-03T21:21:40.657Z,27.14
2018-08-03T21:26:42.826Z,27.10
2018-08-03T21:31:44.991Z,27.00
2018-08-03T21:36:47.175Z,26.86
2018-08-03T21:41:49.341Z,26.84
2018-08-03T21:46:51.487Z,26.85
2018-08-03T21:51:53.722Z,26.82
2018-08-03T21:56:55.874Z,26.76
2018-08-03T22:01:58.138Z,26.81
2018-08-03T22:07:00.271Z,26.78
2018-08-03T22:12:02.533Z,26.84
2018-08-03T22:17:04.731Z,26.51
2018-08-03T22:22:06.928Z,26.36
2018-08-03T22:27:09.117Z,26.04
2018-08-03T22:32:11.271Z,25.96
2018-08-03T22:37:13.423Z,25.91
2018-08-03T22:42:15.573Z,25.83
2018-08-03T22:47:17.731Z,25.80
2018-08-03T22:52:19.883Z,25.73
2018-08-03T22:57:22.020Z,25.64
2018-08-03T23:02:24.175Z,25.53
2018-08-03T23:07:26.362Z,25.34
2018-08-03T23:12:28.545Z,25.13
2018-08-03T23:17:30.734Z,24.68
2018-08-03T23:22:32.896Z,24.41
2018-08-03T23:27:35.079Z,24.36
2018-08-03T23:32:37.397Z,24.24
2018-08-03T23:37:39.557Z,24.19
2018-08-03T23:42:41.705Z,24.11
2018-08-03T23:47:43.883Z,24.12
2018-08-03T23:52:47.639Z,24.10
2018-08-03T23:57:49.817Z,24.09
